sensor_id;sensor_type;location;lat;lon;timestamp;temperature;humidity
10046;DHT22;5063;50.878;4.742;2024-03-02T00:00:08;7.30;99.90
10046;DHT22;5063;50.878;4.742;2024-03-02T00:02:43;7.00;99.90
10046;DHT22;5063;50.878;4.742;2024-03-02T00:05:28;7.00;99.90
10046;DHT22;5063;50.878;4.742;2024-03-02T00:07:57;7.00;99.90
10046;DHT22;5063;50.878;4.742;2024-03-02T00:10:31;7.20;99.90
10046;DHT22;5063;50.878;4.742;2024-03-02T00:13:02;7.00;99.90
10046;DHT22;5063;50.878;4.742;2024-03-02T00:15:47;7.00;99.90
10046;DHT22;5063;50.878;4.742;2024-03-02T00:18:18;7.00;99.90
10046;DHT22;5063;50.878;4.742;2024-03-02T00:20:45;7.00;99.90
10046;DHT22;5063;50.878;4.742;2024-03-02T00:23:15;7.00;99.90
10046;DHT22;5063;50.878;4.742;2024-03-02T00:25:46;6.90;99.90
10046;DHT22;5063;50.878;4.742;2024-03-02T00:33:10;7.00;99.90
10046;DHT22;5063;50.878;4.742;2024-03-02T00:35:36;7.00;99.90
10046;DHT22;5063;50.878;4.742;2024-03-02T00:38:06;6.90;99.90
10046;DHT22;5063;50.878;4.742;2024-03-02T00:40:32;7.10;99.90
10046;DHT22;5063;50.878;4.742;2024-03-02T00:42:58;7.00;99.90
10046;DHT22;5063;50.878;4.742;2024-03-02T00:45:25;7.00;99.90
10046;DHT22;5063;50.878;4.742;2024-03-02T00:47:51;7.00;99.90
10046;DHT22;5063;50.878;4.742;2024-03-02T00:50:18;7.30;99.90
10046;DHT22;5063;50.878;4.742;2024-03-02T00:52:44;7.00;99.90
10046;DHT22;5063;50.878;4.742;2024-03-02T00:55:10;7.10;99.90
10046;DHT22;5063;50.878;4.742;2024-03-02T00:57:36;7.20;99.90
10046;DHT22;5063;50.878;4.742;2024-03-02T01:00:01;7.20;99.90
10046;DHT22;5063;50.878;4.742;2024-03-02T01:02:28;7.20;99.90
10046;DHT22;5063;50.878;4.742;2024-03-02T01:04:54;7.30;99.90
10046;DHT22;5063;50.878;4.742;2024-03-02T01:07:20;7.10;99.90
10046;DHT22;5063;50.878;4.742;2024-03-02T01:09:46;7.10;99.90
10046;DHT22;5063;50.878;4.742;2024-03-02T01:12:11;7.10;99.90
10046;DHT22;5063;50.878;4.742;2024-03-02T01:14:37;7.10;99.90
10046;DHT22;5063;50.878;4.742;2024-03-02T01:17:03;7.10;99.90
10046;DHT22;5063;50.878;4.742;2024-03-02T01:19:30;7.10;99.90
10046;DHT22;5063;50.878;4.742;2024-03-02T01:21:56;6.90;99.90
10046;DHT22;5063;50.878;4.742;2024-03-02T01:24:22;7.10;99.90
10046;DHT22;5063;50.878;4.742;2024-03-02T01:26:48;7.00;99.90
10046;DHT22;5063;50.878;4.742;2024-03-02T01:29:13;7.00;99.90
10046;DHT22;5063;50.878;4.742;2024-03-02T01:31:39;7.00;99.90
10046;DHT22;5063;50.878;4.742;2024-03-02T01:34:08;6.90;99.90
10046;DHT22;5063;50.878;4.742;2024-03-02T01:36:34;6.90;99.90
10046;DHT22;5063;50.878;4.742;2024-03-02T01:38:59;7.00;99.90
10046;DHT22;5063;50.878;4.742;2024-03-02T01:41:25;6.70;99.90
10046;DHT22;5063;50.878;4.742;2024-03-02T01:43:51;6.80;99.90
10046;DHT22;5063;50.878;4.742;2024-03-02T01:46:17;6.80;99.90
10046;DHT22;5063;50.878;4.742;2024-03-02T01:48:42;6.80;99.90
10046;DHT22;5063;50.878;4.742;2024-03-02T01:51:08;7.00;99.90
10046;DHT22;5063;50.878;4.742;2024-03-02T01:53:34;6.70;99.90
10046;DHT22;5063;50.878;4.742;2024-03-02T01:56:00;6.60;99.90
10046;DHT22;5063;50.878;4.742;2024-03-02T01:58:27;6.90;99.90
10046;DHT22;5063;50.878;4.742;2024-03-02T02:00:53;6.70;99.90
10046;DHT22;5063;50.878;4.742;2024-03-02T02:03:19;6.70;99.90
10046;DHT22;5063;50.878;4.742;2024-03-02T02:05:45;6.70;99.90
10046;DHT22;5063;50.878;4.742;2024-03-02T02:08:12;6.80;99.90
10046;DHT22;5063;50.878;4.742;2024-03-02T02:10:38;6.80;99.90
10046;DHT22;5063;50.878;4.742;2024-03-02T02:13:04;6.80;99.90
10046;DHT22;5063;50.878;4.742;2024-03-02T02:15:30;6.80;99.90
10046;DHT22;5063;50.878;4.742;2024-03-02T02:17:57;6.80;99.90
10046;DHT22;5063;50.878;4.742;2024-03-02T02:20:23;6.90;99.90
10046;DHT22;5063;50.878;4.742;2024-03-02T02:22:57;6.90;99.90
10046;DHT22;5063;50.878;4.742;2024-03-02T02:25:23;7.00;99.90
10046;DHT22;5063;50.878;4.742;2024-03-02T02:27:49;7.10;99.90
10046;DHT22;5063;50.878;4.742;2024-03-02T02:30:24;6.90;99.90
10046;DHT22;5063;50.878;4.742;2024-03-02T02:32:50;7.00;99.90
10046;DHT22;5063;50.878;4.742;2024-03-02T02:35:16;7.00;99.90
10046;DHT22;5063;50.878;4.742;2024-03-02T02:37:43;7.00;99.90
10046;DHT22;5063;50.878;4.742;2024-03-02T02:40:09;7.00;99.90
10046;DHT22;5063;50.878;4.742;2024-03-02T02:42:35;6.90;99.90
10046;DHT22;5063;50.878;4.742;2024-03-02T02:45:00;6.90;99.90
10046;DHT22;5063;50.878;4.742;2024-03-02T02:47:26;6.90;99.90
10046;DHT22;5063;50.878;4.742;2024-03-02T02:49:52;7.00;99.90
10046;DHT22;5063;50.878;4.742;2024-03-02T02:52:17;6.70;99.90
10046;DHT22;5063;50.878;4.742;2024-03-02T02:54:44;6.50;99.90
10046;DHT22;5063;50.878;4.742;2024-03-02T02:57:09;6.50;99.90
10046;DHT22;5063;50.878;4.742;2024-03-02T02:59:36;6.60;99.90
10046;DHT22;5063;50.878;4.742;2024-03-02T03:02:02;6.40;99.90
10046;DHT22;5063;50.878;4.742;2024-03-02T03:04:28;6.50;99.90
10046;DHT22;5063;50.878;4.742;2024-03-02T03:06:53;6.10;99.90
10046;DHT22;5063;50.878;4.742;2024-03-02T03:09:19;6.20;99.90
10046;DHT22;5063;50.878;4.742;2024-03-02T03:11:45;6.20;99.90
10046;DHT22;5063;50.878;4.742;2024-03-02T03:14:10;6.00;99.90
10046;DHT22;5063;50.878;4.742;2024-03-02T03:16:36;6.30;99.90
10046;DHT22;5063;50.878;4.742;2024-03-02T03:19:02;5.90;99.90
10046;DHT22;5063;50.878;4.742;2024-03-02T03:21:27;6.00;99.90
10046;DHT22;5063;50.878;4.742;2024-03-02T03:23:53;5.80;99.90
10046;DHT22;5063;50.878;4.742;2024-03-02T03:26:20;5.90;99.90
10046;DHT22;5063;50.878;4.742;2024-03-02T03:28:46;5.70;99.90
10046;DHT22;5063;50.878;4.742;2024-03-02T03:31:12;5.70;99.90
10046;DHT22;5063;50.878;4.742;2024-03-02T03:33:37;5.50;99.90
10046;DHT22;5063;50.878;4.742;2024-03-02T03:36:03;5.60;99.90
10046;DHT22;5063;50.878;4.742;2024-03-02T03:38:29;5.50;99.90
10046;DHT22;5063;50.878;4.742;2024-03-02T03:40:55;5.60;99.90
10046;DHT22;5063;50.878;4.742;2024-03-02T03:43:21;5.30;99.90
10046;DHT22;5063;50.878;4.742;2024-03-02T03:45:47;5.30;99.90
10046;DHT22;5063;50.878;4.742;2024-03-02T03:48:12;5.30;99.90
10046;DHT22;5063;50.878;4.742;2024-03-02T03:50:38;5.30;99.90
10046;DHT22;5063;50.878;4.742;2024-03-02T03:53:04;5.20;99.90
10046;DHT22;5063;50.878;4.742;2024-03-02T03:55:30;5.30;99.90
10046;DHT22;5063;50.878;4.742;2024-03-02T03:57:56;5.30;99.90
10046;DHT22;5063;50.878;4.742;2024-03-02T04:00:21;5.30;99.90
10046;DHT22;5063;50.878;4.742;2024-03-02T04:02:47;5.40;99.90
10046;DHT22;5063;50.878;4.742;2024-03-02T04:05:13;5.20;99.90
10046;DHT22;5063;50.878;4.742;2024-03-02T04:07:39;5.40;99.90
10046;DHT22;5063;50.878;4.742;2024-03-02T04:10:09;5.50;99.90
10046;DHT22;5063;50.878;4.742;2024-03-02T04:12:36;5.50;99.90
10046;DHT22;5063;50.878;4.742;2024-03-02T04:15:03;5.30;99.90
10046;DHT22;5063;50.878;4.742;2024-03-02T04:17:31;5.30;99.90
10046;DHT22;5063;50.878;4.742;2024-03-02T04:19:57;5.20;99.90
10046;DHT22;5063;50.878;4.742;2024-03-02T04:22:22;5.50;99.90
10046;DHT22;5063;50.878;4.742;2024-03-02T04:24:48;5.40;99.90
10046;DHT22;5063;50.878;4.742;2024-03-02T04:27:14;5.20;99.90
10046;DHT22;5063;50.878;4.742;2024-03-02T04:29:39;5.20;99.90
10046;DHT22;5063;50.878;4.742;2024-03-02T04:32:06;4.60;99.90
10046;DHT22;5063;50.878;4.742;2024-03-02T04:34:32;5.10;99.90
10046;DHT22;5063;50.878;4.742;2024-03-02T04:36:57;5.00;99.90
10046;DHT22;5063;50.878;4.742;2024-03-02T04:39:23;5.00;99.90
10046;DHT22;5063;50.878;4.742;2024-03-02T04:41:50;5.00;99.90
10046;DHT22;5063;50.878;4.742;2024-03-02T04:44:15;4.90;99.90
10046;DHT22;5063;50.878;4.742;2024-03-02T04:46:41;5.00;99.90
10046;DHT22;5063;50.878;4.742;2024-03-02T04:49:07;4.90;99.90
10046;DHT22;5063;50.878;4.742;2024-03-02T04:51:33;4.80;99.90
10046;DHT22;5063;50.878;4.742;2024-03-02T04:53:59;4.70;99.90
10046;DHT22;5063;50.878;4.742;2024-03-02T04:56:25;4.80;99.90
10046;DHT22;5063;50.878;4.742;2024-03-02T04:58:56;4.80;99.90
10046;DHT22;5063;50.878;4.742;2024-03-02T05:01:22;4.90;99.90
10046;DHT22;5063;50.878;4.742;2024-03-02T05:03:49;4.80;99.90
10046;DHT22;5063;50.878;4.742;2024-03-02T05:06:14;5.10;99.90
10046;DHT22;5063;50.878;4.742;2024-03-02T05:08:40;4.80;99.90
10046;DHT22;5063;50.878;4.742;2024-03-02T05:11:06;5.00;99.90
10046;DHT22;5063;50.878;4.742;2024-03-02T05:13:50;5.10;99.90
10046;DHT22;5063;50.878;4.742;2024-03-02T05:16:16;4.80;99.90
10046;DHT22;5063;50.878;4.742;2024-03-02T05:18:41;5.00;99.90
10046;DHT22;5063;50.878;4.742;2024-03-02T05:21:07;4.70;99.90
10046;DHT22;5063;50.878;4.742;2024-03-02T05:23:33;4.70;99.90
10046;DHT22;5063;50.878;4.742;2024-03-02T05:25:58;4.70;99.90
10046;DHT22;5063;50.878;4.742;2024-03-02T05:28:24;4.20;99.90
10046;DHT22;5063;50.878;4.742;2024-03-02T05:30:50;4.70;99.90
10046;DHT22;5063;50.878;4.742;2024-03-02T05:33:16;4.70;99.90
10046;DHT22;5063;50.878;4.742;2024-03-02T05:35:43;4.80;99.90
10046;DHT22;5063;50.878;4.742;2024-03-02T05:38:09;4.90;99.90
10046;DHT22;5063;50.878;4.742;2024-03-02T05:40:34;5.00;99.90
10046;DHT22;5063;50.878;4.742;2024-03-02T05:43:00;4.80;99.90
10046;DHT22;5063;50.878;4.742;2024-03-02T05:45:26;4.70;99.90
10046;DHT22;5063;50.878;4.742;2024-03-02T05:47:51;4.70;99.90
10046;DHT22;5063;50.878;4.742;2024-03-02T05:50:17;4.80;99.90
10046;DHT22;5063;50.878;4.742;2024-03-02T05:52:45;4.90;99.90
10046;DHT22;5063;50.878;4.742;2024-03-02T05:55:11;4.90;99.90
10046;DHT22;5063;50.878;4.742;2024-03-02T05:57:36;4.90;99.90
10046;DHT22;5063;50.878;4.742;2024-03-02T06:00:21;4.90;99.90
10046;DHT22;5063;50.878;4.742;2024-03-02T06:02:47;4.90;99.90
10046;DHT22;5063;50.878;4.742;2024-03-02T06:05:13;4.80;99.90
10046;DHT22;5063;50.878;4.742;2024-03-02T06:07:40;4.90;99.90
10046;DHT22;5063;50.878;4.742;2024-03-02T06:10:06;4.80;99.90
10046;DHT22;5063;50.878;4.742;2024-03-02T06:12:34;5.00;99.90
10046;DHT22;5063;50.878;4.742;2024-03-02T06:15:00;4.80;99.90
10046;DHT22;5063;50.878;4.742;2024-03-02T06:17:26;4.80;99.90
10046;DHT22;5063;50.878;4.742;2024-03-02T06:19:51;4.80;99.90
10046;DHT22;5063;50.878;4.742;2024-03-02T06:22:17;4.80;99.90
10046;DHT22;5063;50.878;4.742;2024-03-02T06:24:44;4.70;99.90
10046;DHT22;5063;50.878;4.742;2024-03-02T06:27:10;4.70;99.90
10046;DHT22;5063;50.878;4.742;2024-03-02T06:29:36;4.80;99.90
10046;DHT22;5063;50.878;4.742;2024-03-02T06:32:01;4.40;99.90
10046;DHT22;5063;50.878;4.742;2024-03-02T06:34:27;4.80;99.90
10046;DHT22;5063;50.878;4.742;2024-03-02T06:36:53;4.80;99.90
10046;DHT22;5063;50.878;4.742;2024-03-02T06:39:18;4.90;99.90
10046;DHT22;5063;50.878;4.742;2024-03-02T06:41:44;5.00;99.90
10046;DHT22;5063;50.878;4.742;2024-03-02T06:44:12;5.10;99.90
10046;DHT22;5063;50.878;4.742;2024-03-02T06:46:38;5.10;99.90
10046;DHT22;5063;50.878;4.742;2024-03-02T06:49:04;5.10;99.90
10046;DHT22;5063;50.878;4.742;2024-03-02T06:51:30;5.20;99.90
10046;DHT22;5063;50.878;4.742;2024-03-02T06:53:56;5.10;99.90
10046;DHT22;5063;50.878;4.742;2024-03-02T06:56:22;5.20;99.90
10046;DHT22;5063;50.878;4.742;2024-03-02T06:58:47;5.10;99.90
10046;DHT22;5063;50.878;4.742;2024-03-02T07:01:13;5.40;99.90
10046;DHT22;5063;50.878;4.742;2024-03-02T07:03:39;5.20;99.90
10046;DHT22;5063;50.878;4.742;2024-03-02T07:06:05;5.50;99.90
10046;DHT22;5063;50.878;4.742;2024-03-02T07:08:31;5.30;99.90
10046;DHT22;5063;50.878;4.742;2024-03-02T07:10:57;5.30;99.90
10046;DHT22;5063;50.878;4.742;2024-03-02T07:13:23;5.40;99.90
10046;DHT22;5063;50.878;4.742;2024-03-02T07:15:48;5.60;99.90
10046;DHT22;5063;50.878;4.742;2024-03-02T07:18:29;6.30;99.90
10046;DHT22;5063;50.878;4.742;2024-03-02T07:21:10;7.30;99.90
10046;DHT22;5063;50.878;4.742;2024-03-02T07:23:36;8.50;99.90
10046;DHT22;5063;50.878;4.742;2024-03-02T07:26:02;9.60;99.90
10046;DHT22;5063;50.878;4.742;2024-03-02T07:28:28;10.60;99.90
10046;DHT22;5063;50.878;4.742;2024-03-02T07:31:02;11.40;99.90
10046;DHT22;5063;50.878;4.742;2024-03-02T07:33:28;11.90;99.90
10046;DHT22;5063;50.878;4.742;2024-03-02T07:35:55;11.90;99.90
10046;DHT22;5063;50.878;4.742;2024-03-02T07:38:25;11.60;99.90
10046;DHT22;5063;50.878;4.742;2024-03-02T07:40:51;11.20;99.90
10046;DHT22;5063;50.878;4.742;2024-03-02T07:43:17;11.10;99.90
10046;DHT22;5063;50.878;4.742;2024-03-02T07:45:43;11.10;99.90
10046;DHT22;5063;50.878;4.742;2024-03-02T07:48:09;11.20;99.90
10046;DHT22;5063;50.878;4.742;2024-03-02T07:50:34;11.00;99.90
10046;DHT22;5063;50.878;4.742;2024-03-02T07:53:04;10.70;99.90
10046;DHT22;5063;50.878;4.742;2024-03-02T07:55:30;10.50;99.90
10046;DHT22;5063;50.878;4.742;2024-03-02T07:57:56;10.20;99.90
10046;DHT22;5063;50.878;4.742;2024-03-02T08:00:23;10.20;99.90
10046;DHT22;5063;50.878;4.742;2024-03-02T08:02:52;10.60;99.90
10046;DHT22;5063;50.878;4.742;2024-03-02T08:05:18;11.10;99.90
10046;DHT22;5063;50.878;4.742;2024-03-02T08:07:45;11.20;99.90
10046;DHT22;5063;50.878;4.742;2024-03-02T08:10:11;11.20;99.90
10046;DHT22;5063;50.878;4.742;2024-03-02T08:12:36;10.90;99.90
10046;DHT22;5063;50.878;4.742;2024-03-02T08:15:02;10.70;99.90
10046;DHT22;5063;50.878;4.742;2024-03-02T08:17:28;10.50;99.90
10046;DHT22;5063;50.878;4.742;2024-03-02T08:19:54;10.30;99.90
10046;DHT22;5063;50.878;4.742;2024-03-02T08:22:20;10.10;99.90
10046;DHT22;5063;50.878;4.742;2024-03-02T08:24:45;10.00;99.90
10046;DHT22;5063;50.878;4.742;2024-03-02T08:27:11;9.90;99.90
10046;DHT22;5063;50.878;4.742;2024-03-02T08:29:37;9.70;99.90
10046;DHT22;5063;50.878;4.742;2024-03-02T08:32:05;10.00;99.90
10046;DHT22;5063;50.878;4.742;2024-03-02T08:34:31;10.30;99.90
10046;DHT22;5063;50.878;4.742;2024-03-02T08:36:57;10.60;99.90
10046;DHT22;5063;50.878;4.742;2024-03-02T08:39:22;10.90;99.90
10046;DHT22;5063;50.878;4.742;2024-03-02T08:41:48;11.00;99.90
10046;DHT22;5063;50.878;4.742;2024-03-02T08:44:15;10.90;99.90
10046;DHT22;5063;50.878;4.742;2024-03-02T08:46:40;10.80;99.90
10046;DHT22;5063;50.878;4.742;2024-03-02T08:49:07;10.60;99.90
10046;DHT22;5063;50.878;4.742;2024-03-02T08:51:33;10.50;99.90
10046;DHT22;5063;50.878;4.742;2024-03-02T08:53:59;10.50;99.90
10046;DHT22;5063;50.878;4.742;2024-03-02T08:56:25;10.60;99.90
10046;DHT22;5063;50.878;4.742;2024-03-02T08:58:51;11.50;99.90
10046;DHT22;5063;50.878;4.742;2024-03-02T09:01:18;12.60;99.90
10046;DHT22;5063;50.878;4.742;2024-03-02T09:03:45;13.20;99.90
10046;DHT22;5063;50.878;4.742;2024-03-02T09:06:13;13.50;99.90
10046;DHT22;5063;50.878;4.742;2024-03-02T09:08:40;13.60;99.90
10046;DHT22;5063;50.878;4.742;2024-03-02T09:11:06;12.80;99.90
10046;DHT22;5063;50.878;4.742;2024-03-02T09:13:33;11.70;99.90
10046;DHT22;5063;50.878;4.742;2024-03-02T09:15:59;11.20;99.90
10046;DHT22;5063;50.878;4.742;2024-03-02T09:18:24;10.70;99.90
10046;DHT22;5063;50.878;4.742;2024-03-02T09:20:50;10.60;99.90
10046;DHT22;5063;50.878;4.742;2024-03-02T09:23:16;10.20;99.90
10046;DHT22;5063;50.878;4.742;2024-03-02T09:25:41;10.10;99.90
10046;DHT22;5063;50.878;4.742;2024-03-02T09:28:07;10.00;99.90
10046;DHT22;5063;50.878;4.742;2024-03-02T09:30:33;9.90;99.90
10046;DHT22;5063;50.878;4.742;2024-03-02T09:32:59;9.80;99.90
10046;DHT22;5063;50.878;4.742;2024-03-02T09:35:24;10.20;99.90
10046;DHT22;5063;50.878;4.742;2024-03-02T09:37:50;9.90;99.90
10046;DHT22;5063;50.878;4.742;2024-03-02T09:40:16;9.70;99.90
10046;DHT22;5063;50.878;4.742;2024-03-02T09:42:42;9.70;99.90
10046;DHT22;5063;50.878;4.742;2024-03-02T09:45:09;9.80;99.90
10046;DHT22;5063;50.878;4.742;2024-03-02T09:47:35;9.90;99.90
10046;DHT22;5063;50.878;4.742;2024-03-02T09:50:01;10.00;99.90
10046;DHT22;5063;50.878;4.742;2024-03-02T09:52:27;10.10;99.90
10046;DHT22;5063;50.878;4.742;2024-03-02T09:54:53;10.20;99.90
10046;DHT22;5063;50.878;4.742;2024-03-02T09:57:19;10.40;99.90
10046;DHT22;5063;50.878;4.742;2024-03-02T09:59:44;10.40;99.90
10046;DHT22;5063;50.878;4.742;2024-03-02T10:02:11;10.30;99.90
10046;DHT22;5063;50.878;4.742;2024-03-02T10:04:36;10.40;99.90
10046;DHT22;5063;50.878;4.742;2024-03-02T10:07:16;10.70;99.90
10046;DHT22;5063;50.878;4.742;2024-03-02T10:09:43;10.50;99.90
10046;DHT22;5063;50.878;4.742;2024-03-02T10:12:10;10.50;99.90
10046;DHT22;5063;50.878;4.742;2024-03-02T10:14:37;10.60;99.90
10046;DHT22;5063;50.878;4.742;2024-03-02T10:17:13;10.80;99.90
10046;DHT22;5063;50.878;4.742;2024-03-02T10:19:39;10.80;99.90
10046;DHT22;5063;50.878;4.742;2024-03-02T10:22:09;10.90;99.90
10046;DHT22;5063;50.878;4.742;2024-03-02T10:24:39;11.10;99.90
10046;DHT22;5063;50.878;4.742;2024-03-02T10:27:10;11.00;99.90
10046;DHT22;5063;50.878;4.742;2024-03-02T10:29:40;10.90;99.90
10046;DHT22;5063;50.878;4.742;2024-03-02T10:32:09;10.90;99.90
10046;DHT22;5063;50.878;4.742;2024-03-02T10:34:35;10.80;99.90
10046;DHT22;5063;50.878;4.742;2024-03-02T10:37:01;11.00;99.90
10046;DHT22;5063;50.878;4.742;2024-03-02T10:39:28;10.80;99.90
10046;DHT22;5063;50.878;4.742;2024-03-02T10:41:55;11.00;99.90
10046;DHT22;5063;50.878;4.742;2024-03-02T10:44:22;11.00;99.90
10046;DHT22;5063;50.878;4.742;2024-03-02T10:46:49;11.10;99.90
10046;DHT22;5063;50.878;4.742;2024-03-02T10:49:16;11.10;99.90
10046;DHT22;5063;50.878;4.742;2024-03-02T10:51:43;11.10;99.90
10046;DHT22;5063;50.878;4.742;2024-03-02T10:54:09;11.20;99.90
10046;DHT22;5063;50.878;4.742;2024-03-02T10:56:39;11.10;99.90
10046;DHT22;5063;50.878;4.742;2024-03-02T10:59:24;11.20;99.90
10046;DHT22;5063;50.878;4.742;2024-03-02T11:01:55;11.20;99.90
10046;DHT22;5063;50.878;4.742;2024-03-02T11:04:22;11.10;99.90
10046;DHT22;5063;50.878;4.742;2024-03-02T11:06:50;11.20;99.90
10046;DHT22;5063;50.878;4.742;2024-03-02T11:09:20;11.30;99.90
10046;DHT22;5063;50.878;4.742;2024-03-02T11:11:53;11.50;99.90
10046;DHT22;5063;50.878;4.742;2024-03-02T11:14:23;11.60;99.90
10046;DHT22;5063;50.878;4.742;2024-03-02T11:16:50;11.80;99.90
10046;DHT22;5063;50.878;4.742;2024-03-02T11:19:17;12.30;99.90
10046;DHT22;5063;50.878;4.742;2024-03-02T11:21:43;12.50;99.90
10046;DHT22;5063;50.878;4.742;2024-03-02T11:26:54;12.70;99.90
10046;DHT22;5063;50.878;4.742;2024-03-02T11:34:43;12.80;99.90
10046;DHT22;5063;50.878;4.742;2024-03-02T11:37:20;12.90;99.90
10046;DHT22;5063;50.878;4.742;2024-03-02T11:39:48;13.00;99.90
10046;DHT22;5063;50.878;4.742;2024-03-02T11:42:15;13.10;99.90
10046;DHT22;5063;50.878;4.742;2024-03-02T11:44:48;13.30;99.90
10046;DHT22;5063;50.878;4.742;2024-03-02T11:47:17;13.40;99.90
10046;DHT22;5063;50.878;4.742;2024-03-02T11:49:50;13.60;99.90
10046;DHT22;5063;50.878;4.742;2024-03-02T11:52:20;13.50;99.90
10046;DHT22;5063;50.878;4.742;2024-03-02T11:54:48;13.10;99.90
10046;DHT22;5063;50.878;4.742;2024-03-02T11:57:19;13.00;99.90
10046;DHT22;5063;50.878;4.742;2024-03-02T11:59:45;13.10;99.90
10046;DHT22;5063;50.878;4.742;2024-03-02T12:02:16;13.10;99.90
10046;DHT22;5063;50.878;4.742;2024-03-02T12:04:43;13.20;99.90
10046;DHT22;5063;50.878;4.742;2024-03-02T12:07:10;13.20;99.90
10046;DHT22;5063;50.878;4.742;2024-03-02T12:09:36;13.30;99.90
10046;DHT22;5063;50.878;4.742;2024-03-02T12:12:06;13.40;99.90
10046;DHT22;5063;50.878;4.742;2024-03-02T12:14:32;13.40;99.90
10046;DHT22;5063;50.878;4.742;2024-03-02T12:16:59;13.40;99.90
10046;DHT22;5063;50.878;4.742;2024-03-02T12:19:28;13.30;99.90
10046;DHT22;5063;50.878;4.742;2024-03-02T12:21:59;13.50;99.90
10046;DHT22;5063;50.878;4.742;2024-03-02T12:24:28;13.80;99.90
10046;DHT22;5063;50.878;4.742;2024-03-02T12:26:54;14.00;99.90
10046;DHT22;5063;50.878;4.742;2024-03-02T12:29:21;14.20;99.90
10046;DHT22;5063;50.878;4.742;2024-03-02T12:31:53;14.00;99.90
10046;DHT22;5063;50.878;4.742;2024-03-02T12:34:19;13.90;99.90
10046;DHT22;5063;50.878;4.742;2024-03-02T12:36:48;13.80;99.90
10046;DHT22;5063;50.878;4.742;2024-03-02T12:39:21;13.90;99.90
10046;DHT22;5063;50.878;4.742;2024-03-02T12:41:49;14.00;99.90
10046;DHT22;5063;50.878;4.742;2024-03-02T12:44:17;14.20;99.90
10046;DHT22;5063;50.878;4.742;2024-03-02T12:46:44;14.20;99.90
10046;DHT22;5063;50.878;4.742;2024-03-02T12:49:14;14.50;99.90
10046;DHT22;5063;50.878;4.742;2024-03-02T12:51:43;14.60;99.90
10046;DHT22;5063;50.878;4.742;2024-03-02T12:54:12;14.80;99.90
10046;DHT22;5063;50.878;4.742;2024-03-02T12:56:38;14.90;99.90
10046;DHT22;5063;50.878;4.742;2024-03-02T12:59:05;14.80;99.90
10046;DHT22;5063;50.878;4.742;2024-03-02T13:01:31;14.50;99.90
10046;DHT22;5063;50.878;4.742;2024-03-02T13:03:58;14.30;99.90
10046;DHT22;5063;50.878;4.742;2024-03-02T13:06:24;14.50;99.90
10046;DHT22;5063;50.878;4.742;2024-03-02T13:08:53;14.80;99.90
10046;DHT22;5063;50.878;4.742;2024-03-02T13:11:20;15.10;99.90
10046;DHT22;5063;50.878;4.742;2024-03-02T13:13:46;15.50;99.90
10046;DHT22;5063;50.878;4.742;2024-03-02T13:16:12;15.80;99.90
10046;DHT22;5063;50.878;4.742;2024-03-02T13:18:39;16.00;99.90
10046;DHT22;5063;50.878;4.742;2024-03-02T13:21:06;15.80;99.90
10046;DHT22;5063;50.878;4.742;2024-03-02T13:23:32;15.40;99.90
10046;DHT22;5063;50.878;4.742;2024-03-02T13:25:58;15.20;99.90
10046;DHT22;5063;50.878;4.742;2024-03-02T13:28:27;14.90;99.90
10046;DHT22;5063;50.878;4.742;2024-03-02T13:30:53;14.70;99.90
10046;DHT22;5063;50.878;4.742;2024-03-02T13:33:18;14.60;99.90
10046;DHT22;5063;50.878;4.742;2024-03-02T13:35:55;14.70;99.90
10046;DHT22;5063;50.878;4.742;2024-03-02T13:38:22;15.00;99.90
10046;DHT22;5063;50.878;4.742;2024-03-02T13:40:49;14.90;99.90
10046;DHT22;5063;50.878;4.742;2024-03-02T13:43:18;15.00;99.90
10046;DHT22;5063;50.878;4.742;2024-03-02T13:45:47;14.90;99.90
10046;DHT22;5063;50.878;4.742;2024-03-02T13:48:13;14.70;99.90
10046;DHT22;5063;50.878;4.742;2024-03-02T13:50:40;14.40;99.90
10046;DHT22;5063;50.878;4.742;2024-03-02T13:53:06;14.30;99.90
10046;DHT22;5063;50.878;4.742;2024-03-02T13:55:33;14.20;99.90
10046;DHT22;5063;50.878;4.742;2024-03-02T13:57:58;14.30;99.90
10046;DHT22;5063;50.878;4.742;2024-03-02T14:00:25;14.50;99.90
10046;DHT22;5063;50.878;4.742;2024-03-02T14:02:51;14.50;99.90
10046;DHT22;5063;50.878;4.742;2024-03-02T14:05:17;14.40;99.90
10046;DHT22;5063;50.878;4.742;2024-03-02T14:07:44;14.30;99.90
10046;DHT22;5063;50.878;4.742;2024-03-02T14:10:10;14.20;99.90
10046;DHT22;5063;50.878;4.742;2024-03-02T14:12:37;14.10;99.90
10046;DHT22;5063;50.878;4.742;2024-03-02T14:15:03;14.10;99.90
10046;DHT22;5063;50.878;4.742;2024-03-02T14:17:29;14.20;99.90
10046;DHT22;5063;50.878;4.742;2024-03-02T14:19:57;14.30;99.90
10046;DHT22;5063;50.878;4.742;2024-03-02T14:22:24;14.40;99.90
10046;DHT22;5063;50.878;4.742;2024-03-02T14:24:50;14.40;99.90
10046;DHT22;5063;50.878;4.742;2024-03-02T14:27:16;14.40;99.90
10046;DHT22;5063;50.878;4.742;2024-03-02T14:29:43;14.40;99.90
10046;DHT22;5063;50.878;4.742;2024-03-02T14:32:09;14.30;99.90
10046;DHT22;5063;50.878;4.742;2024-03-02T14:34:35;14.40;99.90
10046;DHT22;5063;50.878;4.742;2024-03-02T14:37:00;14.40;99.90
10046;DHT22;5063;50.878;4.742;2024-03-02T14:39:26;14.20;99.90
10046;DHT22;5063;50.878;4.742;2024-03-02T14:41:52;14.00;99.90
10046;DHT22;5063;50.878;4.742;2024-03-02T14:44:18;14.00;99.90
10046;DHT22;5063;50.878;4.742;2024-03-02T14:46:47;13.90;99.90
10046;DHT22;5063;50.878;4.742;2024-03-02T14:49:13;14.10;99.90
10046;DHT22;5063;50.878;4.742;2024-03-02T14:51:39;14.10;99.90
10046;DHT22;5063;50.878;4.742;2024-03-02T14:54:05;14.10;99.90
10046;DHT22;5063;50.878;4.742;2024-03-02T14:56:31;14.00;99.90
10046;DHT22;5063;50.878;4.742;2024-03-02T14:58:56;14.00;99.90
10046;DHT22;5063;50.878;4.742;2024-03-02T15:01:22;14.00;99.90
10046;DHT22;5063;50.878;4.742;2024-03-02T15:03:49;14.00;99.90
10046;DHT22;5063;50.878;4.742;2024-03-02T15:06:15;14.00;99.90
10046;DHT22;5063;50.878;4.742;2024-03-02T15:08:41;14.00;99.90
10046;DHT22;5063;50.878;4.742;2024-03-02T15:11:08;13.90;99.90
10046;DHT22;5063;50.878;4.742;2024-03-02T15:13:34;13.90;99.90
10046;DHT22;5063;50.878;4.742;2024-03-02T15:16:00;13.80;99.90
10046;DHT22;5063;50.878;4.742;2024-03-02T15:18:26;13.80;99.90
10046;DHT22;5063;50.878;4.742;2024-03-02T15:20:52;13.70;99.90
10046;DHT22;5063;50.878;4.742;2024-03-02T15:23:18;13.60;99.90
10046;DHT22;5063;50.878;4.742;2024-03-02T15:25:44;13.50;99.90
10046;DHT22;5063;50.878;4.742;2024-03-02T15:28:10;13.50;99.90
10046;DHT22;5063;50.878;4.742;2024-03-02T15:30:35;13.40;99.90
10046;DHT22;5063;50.878;4.742;2024-03-02T15:33:01;13.40;99.90
10046;DHT22;5063;50.878;4.742;2024-03-02T15:35:27;13.40;99.90
10046;DHT22;5063;50.878;4.742;2024-03-02T15:37:53;13.50;99.90
10046;DHT22;5063;50.878;4.742;2024-03-02T15:40:19;13.50;99.90
10046;DHT22;5063;50.878;4.742;2024-03-02T15:42:45;13.60;99.90
10046;DHT22;5063;50.878;4.742;2024-03-02T15:45:10;13.60;99.90
10046;DHT22;5063;50.878;4.742;2024-03-02T15:47:36;13.60;99.90
10046;DHT22;5063;50.878;4.742;2024-03-02T15:50:03;13.50;99.90
10046;DHT22;5063;50.878;4.742;2024-03-02T15:52:32;13.50;99.90
10046;DHT22;5063;50.878;4.742;2024-03-02T15:54:58;13.50;99.90
10046;DHT22;5063;50.878;4.742;2024-03-02T15:57:24;13.40;99.90
10046;DHT22;5063;50.878;4.742;2024-03-02T15:59:51;13.40;99.90
10046;DHT22;5063;50.878;4.742;2024-03-02T16:02:16;13.30;99.90
10046;DHT22;5063;50.878;4.742;2024-03-02T16:04:42;13.30;99.90